KODX Airport (Evelyn Sharp Field) Information

FAA: ODX - ICAO: KODX

KODX Airport Location

State Nebraska
County Valley
City Ord
KODX Airport is 2 miles northwest of Ord, NE.
Latitude 41-37-25.3000N
Longitude 098-57-06.7000W
Elevation 2,070ft

KODX Airport METARs

METAR KODX 071953Z AUTO 01011KT 10SM OVC009 M06/M09 A3028 RMK AO2 SLP289 T10611089
Altimeter 30.28"
Temperature -6.1°C (21.0°F)
Wind 10° at 11KT
Clouds overcast at 900ft
Visibility 10.0mi
Time observed: 2022-12-07T19:53:00Z

KODX Airport Details

Status Operational
Activation January 1947
Ownership Public
Usage Public
Chart OMAHA
ATC on-site No
Beacon schedule sunset-sunrise
Beacon color clear green

KODX Airport Contacts

Owner VALLEY COUNTY AIRPORT AUTHORITY
Owner address 81385 HIGHWAY 11, ORD, NE 68862-5354
Owner phone (308) 750-5126
Manager GAYLAND MEYER
Manager address BOX 130, NORTH PLATTE, NE 69101
Manager phone 308-532-8600

KODX Airport (Evelyn Sharp Field) Radio Frequencies

KODX (Airport) Radio Frequencies

UNICOM 122.8
Common traffic advisory frequency (CTAF) 122.8